sensor_id;sensor_type;location;lat;lon;timestamp;temperature;humidity
42031;DHT22;27709;52.036;5.906;2022-08-02T00:01:51;13.20;96.20
42031;DHT22;27709;52.036;5.906;2022-08-02T00:04:18;13.20;96.30
42031;DHT22;27709;52.036;5.906;2022-08-02T00:06:44;13.30;96.50
42031;DHT22;27709;52.036;5.906;2022-08-02T00:11:45;13.40;96.50
42031;DHT22;27709;52.036;5.906;2022-08-02T00:14:11;13.40;96.50
42031;DHT22;27709;52.036;5.906;2022-08-02T00:16:37;13.40;96.60
42031;DHT22;27709;52.036;5.906;2022-08-02T00:19:03;13.40;96.70
42031;DHT22;27709;52.036;5.906;2022-08-02T00:31:50;13.50;96.80
42031;DHT22;27709;52.036;5.906;2022-08-02T00:34:19;13.50;96.80
42031;DHT22;27709;52.036;5.906;2022-08-02T00:36:45;13.50;96.70
42031;DHT22;27709;52.036;5.906;2022-08-02T00:39:12;13.50;96.80
42031;DHT22;27709;52.036;5.906;2022-08-02T00:41:47;13.50;96.90
42031;DHT22;27709;52.036;5.906;2022-08-02T00:44:14;13.50;97.00
42031;DHT22;27709;52.036;5.906;2022-08-02T00:46:42;13.40;97.00
42031;DHT22;27709;52.036;5.906;2022-08-02T00:49:10;13.50;97.10
42031;DHT22;27709;52.036;5.906;2022-08-02T00:51:40;13.40;97.10
42031;DHT22;27709;52.036;5.906;2022-08-02T00:54:07;13.40;97.00
42031;DHT22;27709;52.036;5.906;2022-08-02T01:04:18;13.30;97.40
42031;DHT22;27709;52.036;5.906;2022-08-02T01:07:00;13.40;97.50
42031;DHT22;27709;52.036;5.906;2022-08-02T01:09:28;13.30;97.50
42031;DHT22;27709;52.036;5.906;2022-08-02T01:11:54;13.40;97.60
42031;DHT22;27709;52.036;5.906;2022-08-02T01:14:21;13.40;97.50
42031;DHT22;27709;52.036;5.906;2022-08-02T01:17:54;13.40;97.70
42031;DHT22;27709;52.036;5.906;2022-08-02T01:20:24;13.30;97.70
42031;DHT22;27709;52.036;5.906;2022-08-02T01:23:13;13.30;97.80
42031;DHT22;27709;52.036;5.906;2022-08-02T01:28:42;13.20;98.10
42031;DHT22;27709;52.036;5.906;2022-08-02T01:41:32;13.10;98.30
42031;DHT22;27709;52.036;5.906;2022-08-02T01:44:00;13.10;98.40
42031;DHT22;27709;52.036;5.906;2022-08-02T01:46:29;13.10;98.60
42031;DHT22;27709;52.036;5.906;2022-08-02T01:49:02;13.10;98.60
42031;DHT22;27709;52.036;5.906;2022-08-02T01:51:31;13.10;98.50
42031;DHT22;27709;52.036;5.906;2022-08-02T01:54:21;13.10;98.40
42031;DHT22;27709;52.036;5.906;2022-08-02T01:56:50;13.10;98.40
42031;DHT22;27709;52.036;5.906;2022-08-02T01:59:19;13.10;98.30
42031;DHT22;27709;52.036;5.906;2022-08-02T02:01:47;13.10;98.40
42031;DHT22;27709;52.036;5.906;2022-08-02T02:04:14;13.10;98.50
42031;DHT22;27709;52.036;5.906;2022-08-02T02:06:44;13.10;98.60
42031;DHT22;27709;52.036;5.906;2022-08-02T02:09:13;13.10;98.70
42031;DHT22;27709;52.036;5.906;2022-08-02T02:11:42;13.10;98.80
42031;DHT22;27709;52.036;5.906;2022-08-02T02:14:10;13.00;98.80
42031;DHT22;27709;52.036;5.906;2022-08-02T02:16:40;13.00;99.10
42031;DHT22;27709;52.036;5.906;2022-08-02T02:19:08;13.00;99.20
42031;DHT22;27709;52.036;5.906;2022-08-02T02:21:36;13.00;99.20
42031;DHT22;27709;52.036;5.906;2022-08-02T02:24:04;13.00;99.30
42031;DHT22;27709;52.036;5.906;2022-08-02T03:02:44;12.90;99.80
42031;DHT22;27709;52.036;5.906;2022-08-02T03:05:12;13.00;99.90
42031;DHT22;27709;52.036;5.906;2022-08-02T03:07:40;13.00;99.90
42031;DHT22;27709;52.036;5.906;2022-08-02T03:10:09;13.10;99.90
42031;DHT22;27709;52.036;5.906;2022-08-02T03:12:35;13.20;99.80
42031;DHT22;27709;52.036;5.906;2022-08-02T03:15:05;13.10;99.80
42031;DHT22;27709;52.036;5.906;2022-08-02T03:17:40;13.20;99.90
42031;DHT22;27709;52.036;5.906;2022-08-02T03:20:10;13.20;99.90
42031;DHT22;27709;52.036;5.906;2022-08-02T03:22:35;13.20;99.80
42031;DHT22;27709;52.036;5.906;2022-08-02T03:25:01;13.20;99.70
42031;DHT22;27709;52.036;5.906;2022-08-02T03:27:27;13.30;99.70
42031;DHT22;27709;52.036;5.906;2022-08-02T03:29:53;13.30;99.60
42031;DHT22;27709;52.036;5.906;2022-08-02T03:45:16;13.30;99.50
42031;DHT22;27709;52.036;5.906;2022-08-02T03:52:54;13.20;99.70
42031;DHT22;27709;52.036;5.906;2022-08-02T04:10:53;13.50;99.90
42031;DHT22;27709;52.036;5.906;2022-08-02T04:13:37;13.50;99.90
42031;DHT22;27709;52.036;5.906;2022-08-02T04:18:38;13.60;99.90
42031;DHT22;27709;52.036;5.906;2022-08-02T04:26:16;13.70;99.80
42031;DHT22;27709;52.036;5.906;2022-08-02T04:28:45;13.80;99.80
42031;DHT22;27709;52.036;5.906;2022-08-02T04:31:15;13.80;99.70
42031;DHT22;27709;52.036;5.906;2022-08-02T04:33:46;13.80;99.60
42031;DHT22;27709;52.036;5.906;2022-08-02T04:36:14;14.00;99.60
42031;DHT22;27709;52.036;5.906;2022-08-02T04:38:40;14.10;99.60
42031;DHT22;27709;52.036;5.906;2022-08-02T04:41:08;14.10;99.50
42031;DHT22;27709;52.036;5.906;2022-08-02T04:43:36;14.20;99.40
42031;DHT22;27709;52.036;5.906;2022-08-02T04:46:03;14.30;99.40
42031;DHT22;27709;52.036;5.906;2022-08-02T04:48:30;14.30;99.30
42031;DHT22;27709;52.036;5.906;2022-08-02T04:50:58;14.40;99.20
42031;DHT22;27709;52.036;5.906;2022-08-02T04:53:29;14.40;99.20
42031;DHT22;27709;52.036;5.906;2022-08-02T04:55:55;14.50;99.20
42031;DHT22;27709;52.036;5.906;2022-08-02T04:58:22;14.60;99.20
42031;DHT22;27709;52.036;5.906;2022-08-02T05:00:47;14.70;99.10
42031;DHT22;27709;52.036;5.906;2022-08-02T05:03:13;14.80;99.00
42031;DHT22;27709;52.036;5.906;2022-08-02T05:05:39;15.00;99.20
42031;DHT22;27709;52.036;5.906;2022-08-02T05:08:04;15.10;98.80
42031;DHT22;27709;52.036;5.906;2022-08-02T05:10:30;15.20;98.80
42031;DHT22;27709;52.036;5.906;2022-08-02T05:12:55;15.30;98.70
42031;DHT22;27709;52.036;5.906;2022-08-02T05:15:21;15.30;98.60
42031;DHT22;27709;52.036;5.906;2022-08-02T05:17:47;15.40;98.60
42031;DHT22;27709;52.036;5.906;2022-08-02T05:20:13;15.40;98.60
42031;DHT22;27709;52.036;5.906;2022-08-02T05:22:40;15.40;98.50
42031;DHT22;27709;52.036;5.906;2022-08-02T05:25:09;15.50;98.50
42031;DHT22;27709;52.036;5.906;2022-08-02T05:27:35;15.50;98.40
42031;DHT22;27709;52.036;5.906;2022-08-02T05:30:00;15.50;98.40
42031;DHT22;27709;52.036;5.906;2022-08-02T05:32:26;15.50;98.30
42031;DHT22;27709;52.036;5.906;2022-08-02T05:34:52;15.60;98.30
42031;DHT22;27709;52.036;5.906;2022-08-02T05:37:20;15.70;98.10
42031;DHT22;27709;52.036;5.906;2022-08-02T05:39:47;15.70;98.00
42031;DHT22;27709;52.036;5.906;2022-08-02T05:42:12;15.80;97.80
42031;DHT22;27709;52.036;5.906;2022-08-02T05:44:38;15.90;97.70
42031;DHT22;27709;52.036;5.906;2022-08-02T05:47:04;16.00;97.50
42031;DHT22;27709;52.036;5.906;2022-08-02T05:49:29;16.10;97.50
42031;DHT22;27709;52.036;5.906;2022-08-02T05:52:08;16.10;97.40
42031;DHT22;27709;52.036;5.906;2022-08-02T05:57:13;16.30;97.10
42031;DHT22;27709;52.036;5.906;2022-08-02T06:02:41;16.40;96.80
42031;DHT22;27709;52.036;5.906;2022-08-02T06:05:16;16.50;96.70
42031;DHT22;27709;52.036;5.906;2022-08-02T06:07:45;16.50;96.70
42031;DHT22;27709;52.036;5.906;2022-08-02T06:10:13;16.60;96.60
42031;DHT22;27709;52.036;5.906;2022-08-02T06:12:50;16.70;96.60
42031;DHT22;27709;52.036;5.906;2022-08-02T06:15:17;16.90;96.50
42031;DHT22;27709;52.036;5.906;2022-08-02T06:17:43;17.00;96.40
42031;DHT22;27709;52.036;5.906;2022-08-02T06:20:14;17.20;96.40
42031;DHT22;27709;52.036;5.906;2022-08-02T06:22:43;17.40;96.20
42031;DHT22;27709;52.036;5.906;2022-08-02T06:25:13;18.10;96.10
42031;DHT22;27709;52.036;5.906;2022-08-02T06:27:40;18.90;94.60
42031;DHT22;27709;52.036;5.906;2022-08-02T06:30:07;19.60;93.20
42031;DHT22;27709;52.036;5.906;2022-08-02T06:32:36;20.20;92.70
42031;DHT22;27709;52.036;5.906;2022-08-02T06:35:05;20.90;91.50
42031;DHT22;27709;52.036;5.906;2022-08-02T06:37:42;21.60;90.30
42031;DHT22;27709;52.036;5.906;2022-08-02T06:40:21;22.20;88.40
42031;DHT22;27709;52.036;5.906;2022-08-02T06:45:41;23.20;85.30
42031;DHT22;27709;52.036;5.906;2022-08-02T06:48:08;23.60;85.20
42031;DHT22;27709;52.036;5.906;2022-08-02T06:50:35;23.80;82.90
42031;DHT22;27709;52.036;5.906;2022-08-02T06:53:04;23.90;81.60
42031;DHT22;27709;52.036;5.906;2022-08-02T06:55:29;24.10;81.00
42031;DHT22;27709;52.036;5.906;2022-08-02T06:57:57;24.40;81.80
42031;DHT22;27709;52.036;5.906;2022-08-02T07:00:22;24.80;80.20
42031;DHT22;27709;52.036;5.906;2022-08-02T07:02:48;25.10;78.50
42031;DHT22;27709;52.036;5.906;2022-08-02T07:05:14;25.50;78.70
42031;DHT22;27709;52.036;5.906;2022-08-02T07:07:40;25.90;78.60
42031;DHT22;27709;52.036;5.906;2022-08-02T07:10:06;26.20;75.90
42031;DHT22;27709;52.036;5.906;2022-08-02T07:12:32;26.50;76.20
42031;DHT22;27709;52.036;5.906;2022-08-02T07:15:09;26.80;75.10
42031;DHT22;27709;52.036;5.906;2022-08-02T07:17:36;27.20;74.30
42031;DHT22;27709;52.036;5.906;2022-08-02T07:20:04;27.40;71.50
42031;DHT22;27709;52.036;5.906;2022-08-02T07:22:30;27.60;73.90
42031;DHT22;27709;52.036;5.906;2022-08-02T07:24:57;27.70;72.20
42031;DHT22;27709;52.036;5.906;2022-08-02T07:27:23;28.00;71.90
42031;DHT22;27709;52.036;5.906;2022-08-02T07:29:50;28.20;69.70
42031;DHT22;27709;52.036;5.906;2022-08-02T07:32:16;28.00;69.40
42031;DHT22;27709;52.036;5.906;2022-08-02T07:34:42;27.90;69.60
42031;DHT22;27709;52.036;5.906;2022-08-02T07:37:11;28.00;71.60
42031;DHT22;27709;52.036;5.906;2022-08-02T07:39:36;28.40;70.90
42031;DHT22;27709;52.036;5.906;2022-08-02T07:42:02;28.60;68.70
42031;DHT22;27709;52.036;5.906;2022-08-02T07:44:28;28.50;67.60
42031;DHT22;27709;52.036;5.906;2022-08-02T07:46:59;28.20;67.90
42031;DHT22;27709;52.036;5.906;2022-08-02T07:49:25;28.00;68.50
42031;DHT22;27709;52.036;5.906;2022-08-02T07:51:50;27.80;70.10
42031;DHT22;27709;52.036;5.906;2022-08-02T07:54:16;27.70;68.80
42031;DHT22;27709;52.036;5.906;2022-08-02T07:56:41;27.70;70.30
42031;DHT22;27709;52.036;5.906;2022-08-02T07:59:07;27.90;70.80
42031;DHT22;27709;52.036;5.906;2022-08-02T08:01:35;28.20;71.10
42031;DHT22;27709;52.036;5.906;2022-08-02T08:04:10;28.80;70.50
42031;DHT22;27709;52.036;5.906;2022-08-02T08:06:37;29.20;68.30
42031;DHT22;27709;52.036;5.906;2022-08-02T08:09:02;29.40;67.40
42031;DHT22;27709;52.036;5.906;2022-08-02T08:11:28;29.50;67.30
42031;DHT22;27709;52.036;5.906;2022-08-02T08:13:59;29.50;67.40
42031;DHT22;27709;52.036;5.906;2022-08-02T08:16:25;29.60;67.30
42031;DHT22;27709;52.036;5.906;2022-08-02T08:19:01;29.70;67.90
42031;DHT22;27709;52.036;5.906;2022-08-02T08:21:27;30.10;68.40
42031;DHT22;27709;52.036;5.906;2022-08-02T08:23:59;30.40;68.50
42031;DHT22;27709;52.036;5.906;2022-08-02T08:26:31;30.60;66.10
42031;DHT22;27709;52.036;5.906;2022-08-02T08:29:12;30.70;65.10
42031;DHT22;27709;52.036;5.906;2022-08-02T08:31:49;31.00;66.80
42031;DHT22;27709;52.036;5.906;2022-08-02T08:34:18;31.30;63.80
42031;DHT22;27709;52.036;5.906;2022-08-02T08:36:44;31.70;62.60
42031;DHT22;27709;52.036;5.906;2022-08-02T08:39:09;31.70;62.20
42031;DHT22;27709;52.036;5.906;2022-08-02T08:41:37;31.80;61.90
42031;DHT22;27709;52.036;5.906;2022-08-02T08:44:07;31.60;61.40
42031;DHT22;27709;52.036;5.906;2022-08-02T08:46:36;31.60;60.70
42031;DHT22;27709;52.036;5.906;2022-08-02T08:52:33;31.60;62.60
42031;DHT22;27709;52.036;5.906;2022-08-02T08:55:03;31.30;61.60
42031;DHT22;27709;52.036;5.906;2022-08-02T08:57:39;31.00;61.00
42031;DHT22;27709;52.036;5.906;2022-08-02T09:00:06;30.80;61.70
42031;DHT22;27709;52.036;5.906;2022-08-02T09:02:37;30.80;62.40
42031;DHT22;27709;52.036;5.906;2022-08-02T09:05:13;30.90;61.70
42031;DHT22;27709;52.036;5.906;2022-08-02T09:07:39;31.10;61.30
42031;DHT22;27709;52.036;5.906;2022-08-02T09:13:27;31.40;60.30
42031;DHT22;27709;52.036;5.906;2022-08-02T09:15:59;31.30;61.20
42031;DHT22;27709;52.036;5.906;2022-08-02T09:18:38;31.20;58.90
42031;DHT22;27709;52.036;5.906;2022-08-02T09:21:08;31.10;58.70
42031;DHT22;27709;52.036;5.906;2022-08-02T09:23:38;31.20;58.90
42031;DHT22;27709;52.036;5.906;2022-08-02T09:26:09;31.30;59.40
42031;DHT22;27709;52.036;5.906;2022-08-02T09:28:37;31.40;58.30
42031;DHT22;27709;52.036;5.906;2022-08-02T09:31:16;31.40;57.80
42031;DHT22;27709;52.036;5.906;2022-08-02T09:33:44;31.40;57.80
42031;DHT22;27709;52.036;5.906;2022-08-02T09:36:14;31.50;58.80
42031;DHT22;27709;52.036;5.906;2022-08-02T09:39:03;31.70;57.60
42031;DHT22;27709;52.036;5.906;2022-08-02T09:41:33;31.80;58.50
42031;DHT22;27709;52.036;5.906;2022-08-02T09:44:03;31.90;58.20
42031;DHT22;27709;52.036;5.906;2022-08-02T09:46:30;31.90;58.30
42031;DHT22;27709;52.036;5.906;2022-08-02T09:49:02;31.70;58.70
42031;DHT22;27709;52.036;5.906;2022-08-02T09:51:31;31.80;59.50
42031;DHT22;27709;52.036;5.906;2022-08-02T09:53:59;31.90;58.50
42031;DHT22;27709;52.036;5.906;2022-08-02T09:56:27;31.90;58.60
42031;DHT22;27709;52.036;5.906;2022-08-02T09:58:54;31.80;59.00
42031;DHT22;27709;52.036;5.906;2022-08-02T10:01:32;31.90;59.80
42031;DHT22;27709;52.036;5.906;2022-08-02T10:04:00;32.20;59.90
42031;DHT22;27709;52.036;5.906;2022-08-02T10:06:27;32.40;59.40
42031;DHT22;27709;52.036;5.906;2022-08-02T10:08:53;32.30;58.60
42031;DHT22;27709;52.036;5.906;2022-08-02T10:11:21;32.20;59.40
42031;DHT22;27709;52.036;5.906;2022-08-02T10:13:48;32.20;59.00
42031;DHT22;27709;52.036;5.906;2022-08-02T10:16:15;32.30;59.30
42031;DHT22;27709;52.036;5.906;2022-08-02T10:18:42;32.50;59.90
42031;DHT22;27709;52.036;5.906;2022-08-02T10:21:32;32.70;58.90
42031;DHT22;27709;52.036;5.906;2022-08-02T10:24:08;32.80;58.20
42031;DHT22;27709;52.036;5.906;2022-08-02T10:26:35;32.70;58.50
42031;DHT22;27709;52.036;5.906;2022-08-02T10:29:03;32.80;59.30
42031;DHT22;27709;52.036;5.906;2022-08-02T10:31:42;32.90;58.10
42031;DHT22;27709;52.036;5.906;2022-08-02T10:34:15;32.70;58.30
42031;DHT22;27709;52.036;5.906;2022-08-02T10:36:44;32.70;59.80
42031;DHT22;27709;52.036;5.906;2022-08-02T10:39:12;32.50;58.30
42031;DHT22;27709;52.036;5.906;2022-08-02T10:41:46;32.20;58.60
42031;DHT22;27709;52.036;5.906;2022-08-02T10:44:24;31.90;60.10
42031;DHT22;27709;52.036;5.906;2022-08-02T10:46:50;31.70;59.30
42031;DHT22;27709;52.036;5.906;2022-08-02T10:49:20;31.50;59.30
42031;DHT22;27709;52.036;5.906;2022-08-02T10:56:57;31.30;59.20
42031;DHT22;27709;52.036;5.906;2022-08-02T11:01:57;31.60;58.80
42031;DHT22;27709;52.036;5.906;2022-08-02T11:07:12;31.80;58.90
42031;DHT22;27709;52.036;5.906;2022-08-02T11:09:40;31.80;57.60
42031;DHT22;27709;52.036;5.906;2022-08-02T11:12:07;31.80;57.90
42031;DHT22;27709;52.036;5.906;2022-08-02T11:14:35;31.90;57.90
42031;DHT22;27709;52.036;5.906;2022-08-02T11:19:29;31.70;55.90
42031;DHT22;27709;52.036;5.906;2022-08-02T11:22:09;31.60;58.00
42031;DHT22;27709;52.036;5.906;2022-08-02T11:24:39;31.60;58.70
42031;DHT22;27709;52.036;5.906;2022-08-02T11:27:07;31.50;58.90
42031;DHT22;27709;52.036;5.906;2022-08-02T11:29:40;31.50;58.30
42031;DHT22;27709;52.036;5.906;2022-08-02T11:32:21;31.50;57.80
42031;DHT22;27709;52.036;5.906;2022-08-02T11:34:49;31.30;56.70
42031;DHT22;27709;52.036;5.906;2022-08-02T11:37:29;31.20;57.30
42031;DHT22;27709;52.036;5.906;2022-08-02T11:39:55;31.30;57.90
42031;DHT22;27709;52.036;5.906;2022-08-02T11:42:20;31.50;57.90
42031;DHT22;27709;52.036;5.906;2022-08-02T11:44:46;31.70;56.90
42031;DHT22;27709;52.036;5.906;2022-08-02T11:47:18;31.80;56.60
42031;DHT22;27709;52.036;5.906;2022-08-02T11:49:44;31.80;56.80
42031;DHT22;27709;52.036;5.906;2022-08-02T11:52:10;31.90;57.10
42031;DHT22;27709;52.036;5.906;2022-08-02T11:54:38;32.00;56.80
42031;DHT22;27709;52.036;5.906;2022-08-02T11:57:21;32.20;54.50
42031;DHT22;27709;52.036;5.906;2022-08-02T11:59:51;32.10;56.30
42031;DHT22;27709;52.036;5.906;2022-08-02T12:02:19;31.90;55.00
42031;DHT22;27709;52.036;5.906;2022-08-02T12:05:00;31.50;54.40
42031;DHT22;27709;52.036;5.906;2022-08-02T12:07:35;31.40;55.30
42031;DHT22;27709;52.036;5.906;2022-08-02T12:15:45;31.70;55.40
42031;DHT22;27709;52.036;5.906;2022-08-02T12:18:17;31.70;55.90
42031;DHT22;27709;52.036;5.906;2022-08-02T12:21:31;31.80;55.80
42031;DHT22;27709;52.036;5.906;2022-08-02T12:24:05;31.90;55.60
42031;DHT22;27709;52.036;5.906;2022-08-02T12:26:52;32.00;55.00
42031;DHT22;27709;52.036;5.906;2022-08-02T12:32:23;32.30;54.50
42031;DHT22;27709;52.036;5.906;2022-08-02T12:35:09;32.30;53.70
42031;DHT22;27709;52.036;5.906;2022-08-02T12:37:45;32.30;52.30
42031;DHT22;27709;52.036;5.906;2022-08-02T12:40:32;32.20;52.10
42031;DHT22;27709;52.036;5.906;2022-08-02T12:43:04;32.00;51.70
42031;DHT22;27709;52.036;5.906;2022-08-02T12:45:48;31.90;51.70
42031;DHT22;27709;52.036;5.906;2022-08-02T12:48:14;31.90;52.40
42031;DHT22;27709;52.036;5.906;2022-08-02T12:54:17;31.80;51.40
42031;DHT22;27709;52.036;5.906;2022-08-02T12:56:44;32.00;52.50
42031;DHT22;27709;52.036;5.906;2022-08-02T12:59:37;32.10;51.60
42031;DHT22;27709;52.036;5.906;2022-08-02T13:02:08;32.10;49.40
42031;DHT22;27709;52.036;5.906;2022-08-02T13:04:35;32.00;50.30
42031;DHT22;27709;52.036;5.906;2022-08-02T13:07:00;32.00;51.30
42031;DHT22;27709;52.036;5.906;2022-08-02T13:09:26;32.00;51.50
42031;DHT22;27709;52.036;5.906;2022-08-02T13:11:52;31.80;51.40
42031;DHT22;27709;52.036;5.906;2022-08-02T13:14:17;31.60;51.50
42031;DHT22;27709;52.036;5.906;2022-08-02T13:16:45;31.50;51.30
42031;DHT22;27709;52.036;5.906;2022-08-02T13:19:10;31.50;51.90
42031;DHT22;27709;52.036;5.906;2022-08-02T13:21:37;31.30;50.70
42031;DHT22;27709;52.036;5.906;2022-08-02T13:24:03;31.20;51.30
42031;DHT22;27709;52.036;5.906;2022-08-02T13:26:28;31.10;51.40
42031;DHT22;27709;52.036;5.906;2022-08-02T13:28:54;31.10;51.30
42031;DHT22;27709;52.036;5.906;2022-08-02T13:31:19;31.00;51.50
42031;DHT22;27709;52.036;5.906;2022-08-02T13:33:45;31.10;51.60
42031;DHT22;27709;52.036;5.906;2022-08-02T13:36:10;31.30;51.20
42031;DHT22;27709;52.036;5.906;2022-08-02T13:38:36;31.50;51.90
42031;DHT22;27709;52.036;5.906;2022-08-02T13:41:01;31.60;50.40
42031;DHT22;27709;52.036;5.906;2022-08-02T13:43:33;31.60;50.90
42031;DHT22;27709;52.036;5.906;2022-08-02T13:45:59;31.50;51.30
42031;DHT22;27709;52.036;5.906;2022-08-02T13:48:24;31.40;49.90
42031;DHT22;27709;52.036;5.906;2022-08-02T13:50:50;31.20;50.00
42031;DHT22;27709;52.036;5.906;2022-08-02T13:53:15;31.20;50.30
42031;DHT22;27709;52.036;5.906;2022-08-02T13:55:41;31.20;50.60
42031;DHT22;27709;52.036;5.906;2022-08-02T13:58:06;31.20;50.50
42031;DHT22;27709;52.036;5.906;2022-08-02T14:00:32;31.20;49.70
42031;DHT22;27709;52.036;5.906;2022-08-02T14:02:58;31.20;49.90
42031;DHT22;27709;52.036;5.906;2022-08-02T14:05:23;31.20;49.50
42031;DHT22;27709;52.036;5.906;2022-08-02T14:07:55;31.10;49.30
42031;DHT22;27709;52.036;5.906;2022-08-02T14:10:21;31.00;48.60
42031;DHT22;27709;52.036;5.906;2022-08-02T14:12:46;30.80;48.50
42031;DHT22;27709;52.036;5.906;2022-08-02T14:15:12;30.70;49.40
42031;DHT22;27709;52.036;5.906;2022-08-02T14:17:37;30.60;50.20
42031;DHT22;27709;52.036;5.906;2022-08-02T14:20:03;30.60;50.20
42031;DHT22;27709;52.036;5.906;2022-08-02T14:22:29;30.70;50.30
42031;DHT22;27709;52.036;5.906;2022-08-02T14:24:54;30.70;50.10
42031;DHT22;27709;52.036;5.906;2022-08-02T14:27:20;30.60;49.60
42031;DHT22;27709;52.036;5.906;2022-08-02T14:29:45;30.60;50.20
42031;DHT22;27709;52.036;5.906;2022-08-02T14:32:13;30.60;50.20
42031;DHT22;27709;52.036;5.906;2022-08-02T14:34:39;30.60;49.80
42031;DHT22;27709;52.036;5.906;2022-08-02T14:37:05;30.50;48.60
42031;DHT22;27709;52.036;5.906;2022-08-02T14:39:30;30.30;49.30
42031;DHT22;27709;52.036;5.906;2022-08-02T14:41:56;30.10;49.60
42031;DHT22;27709;52.036;5.906;2022-08-02T14:44:21;29.90;49.80
42031;DHT22;27709;52.036;5.906;2022-08-02T14:46:47;29.80;50.50
42031;DHT22;27709;52.036;5.906;2022-08-02T14:49:12;29.60;51.10
42031;DHT22;27709;52.036;5.906;2022-08-02T14:51:38;29.60;51.30
42031;DHT22;27709;52.036;5.906;2022-08-02T14:54:05;29.60;51.70
42031;DHT22;27709;52.036;5.906;2022-08-02T14:56:31;29.60;51.40
42031;DHT22;27709;52.036;5.906;2022-08-02T14:58:57;29.60;51.90
42031;DHT22;27709;52.036;5.906;2022-08-02T15:01:22;29.60;51.50
42031;DHT22;27709;52.036;5.906;2022-08-02T15:03:49;29.80;52.20
42031;DHT22;27709;52.036;5.906;2022-08-02T15:06:15;29.90;52.40
42031;DHT22;27709;52.036;5.906;2022-08-02T15:08:40;30.10;52.70
42031;DHT22;27709;52.036;5.906;2022-08-02T15:11:06;30.30;52.80
42031;DHT22;27709;52.036;5.906;2022-08-02T15:13:31;30.40;52.40
42031;DHT22;27709;52.036;5.906;2022-08-02T15:15:57;30.30;52.10
42031;DHT22;27709;52.036;5.906;2022-08-02T15:18:22;30.20;51.80
42031;DHT22;27709;52.036;5.906;2022-08-02T15:20:48;30.00;51.80
42031;DHT22;27709;52.036;5.906;2022-08-02T15:23:14;29.90;52.60
42031;DHT22;27709;52.036;5.906;2022-08-02T15:25:40;29.70;52.10
42031;DHT22;27709;52.036;5.906;2022-08-02T15:28:07;29.60;52.50
42031;DHT22;27709;52.036;5.906;2022-08-02T15:30:34;29.50;52.80
42031;DHT22;27709;52.036;5.906;2022-08-02T15:32:59;29.50;53.50
42031;DHT22;27709;52.036;5.906;2022-08-02T15:35:25;29.50;53.50
42031;DHT22;27709;52.036;5.906;2022-08-02T15:37:51;29.50;53.80
42031;DHT22;27709;52.036;5.906;2022-08-02T15:40:16;29.60;53.60
42031;DHT22;27709;52.036;5.906;2022-08-02T15:42:42;29.60;53.80
42031;DHT22;27709;52.036;5.906;2022-08-02T15:45:11;29.60;53.60
42031;DHT22;27709;52.036;5.906;2022-08-02T15:47:37;29.60;53.20
42031;DHT22;27709;52.036;5.906;2022-08-02T15:50:03;29.50;53.50
42031;DHT22;27709;52.036;5.906;2022-08-02T15:52:28;29.40;53.60
42031;DHT22;27709;52.036;5.906;2022-08-02T15:54:54;29.50;53.90
42031;DHT22;27709;52.036;5.906;2022-08-02T15:57:19;29.50;53.90
42031;DHT22;27709;52.036;5.906;2022-08-02T15:59:45;29.50;53.90
42031;DHT22;27709;52.036;5.906;2022-08-02T16:02:11;29.50;53.80
42031;DHT22;27709;52.036;5.906;2022-08-02T16:04:37;29.50;54.80
42031;DHT22;27709;52.036;5.906;2022-08-02T16:07:04;29.30;53.70
42031;DHT22;27709;52.036;5.906;2022-08-02T16:09:30;29.20;53.80
42031;DHT22;27709;52.036;5.906;2022-08-02T16:11:55;29.20;54.10
42031;DHT22;27709;52.036;5.906;2022-08-02T16:14:21;29.10;54.40
42031;DHT22;27709;52.036;5.906;2022-08-02T16:16:46;29.10;54.90
42031;DHT22;27709;52.036;5.906;2022-08-02T16:19:12;29.10;55.10
42031;DHT22;27709;52.036;5.906;2022-08-02T16:21:37;29.00;54.90
42031;DHT22;27709;52.036;5.906;2022-08-02T16:24:03;28.90;55.60
42031;DHT22;27709;52.036;5.906;2022-08-02T16:26:30;28.80;56.00
42031;DHT22;27709;52.036;5.906;2022-08-02T16:28:56;28.80;56.30
42031;DHT22;27709;52.036;5.906;2022-08-02T16:31:21;28.70;56.60
42031;DHT22;27709;52.036;5.906;2022-08-02T16:33:48;28.70;57.10
42031;DHT22;27709;52.036;5.906;2022-08-02T16:36:14;28.60;57.60
42031;DHT22;27709;52.036;5.906;2022-08-02T16:38:40;28.50;57.80
42031;DHT22;27709;52.036;5.906;2022-08-02T16:41:06;28.50;57.70
42031;DHT22;27709;52.036;5.906;2022-08-02T16:43:32;28.40;58.00
42031;DHT22;27709;52.036;5.906;2022-08-02T16:45:58;28.40;58.50
42031;DHT22;27709;52.036;5.906;2022-08-02T16:48:25;28.40;58.80
42031;DHT22;27709;52.036;5.906;2022-08-02T16:50:50;28.40;59.40
42031;DHT22;27709;52.036;5.906;2022-08-02T16:53:16;28.30;59.20
42031;DHT22;27709;52.036;5.906;2022-08-02T16:55:42;28.30;59.60
42031;DHT22;27709;52.036;5.906;2022-08-02T16:58:07;28.30;59.90
42031;DHT22;27709;52.036;5.906;2022-08-02T17:00:33;28.30;60.00
42031;DHT22;27709;52.036;5.906;2022-08-02T17:02:59;28.30;60.20
42031;DHT22;27709;52.036;5.906;2022-08-02T17:05:29;28.30;60.40
42031;DHT22;27709;52.036;5.906;2022-08-02T17:07:55;28.20;60.80
42031;DHT22;27709;52.036;5.906;2022-08-02T17:10:23;28.20;60.40
42031;DHT22;27709;52.036;5.906;2022-08-02T17:12:50;28.10;60.40
42031;DHT22;27709;52.036;5.906;2022-08-02T17:15:16;28.10;60.70
42031;DHT22;27709;52.036;5.906;2022-08-02T17:17:41;28.10;60.90
42031;DHT22;27709;52.036;5.906;2022-08-02T17:20:07;28.20;61.20
42031;DHT22;27709;52.036;5.906;2022-08-02T17:22:33;28.10;61.30
42031;DHT22;27709;52.036;5.906;2022-08-02T17:24:58;28.10;61.60
42031;DHT22;27709;52.036;5.906;2022-08-02T17:27:24;28.00;61.50
42031;DHT22;27709;52.036;5.906;2022-08-02T17:29:49;28.00;61.90
42031;DHT22;27709;52.036;5.906;2022-08-02T17:32:15;28.00;62.20
42031;DHT22;27709;52.036;5.906;2022-08-02T17:34:41;27.90;62.20
42031;DHT22;27709;52.036;5.906;2022-08-02T17:37:06;27.90;62.60
42031;DHT22;27709;52.036;5.906;2022-08-02T17:39:35;27.80;62.80
42031;DHT22;27709;52.036;5.906;2022-08-02T17:42:01;27.80;63.10
42031;DHT22;27709;52.036;5.906;2022-08-02T17:44:27;27.80;63.40
42031;DHT22;27709;52.036;5.906;2022-08-02T17:46:54;27.70;63.70
42031;DHT22;27709;52.036;5.906;2022-08-02T17:49:19;27.70;64.20
42031;DHT22;27709;52.036;5.906;2022-08-02T17:51:47;27.60;64.20
42031;DHT22;27709;52.036;5.906;2022-08-02T17:54:13;27.60;64.60
42031;DHT22;27709;52.036;5.906;2022-08-02T17:56:39;27.50;64.80
42031;DHT22;27709;52.036;5.906;2022-08-02T17:59:10;27.50;65.00
42031;DHT22;27709;52.036;5.906;2022-08-02T18:01:36;27.40;65.40
42031;DHT22;27709;52.036;5.906;2022-08-02T18:04:01;27.40;65.90
42031;DHT22;27709;52.036;5.906;2022-08-02T18:06:27;27.30;66.00
42031;DHT22;27709;52.036;5.906;2022-08-02T18:08:52;27.30;66.60
42031;DHT22;27709;52.036;5.906;2022-08-02T18:11:18;27.20;66.90